createdAt,value
2019-01-31T01:04:01.613Z,46.56
2019-01-31T01:09:15.737Z,46.42
2019-01-31T01:14:32.108Z,46.34
2019-01-31T01:19:41.613Z,46.43
2019-01-31T01:24:49.780Z,46.37
2019-01-31T02:32:44.995Z,48.04
2019-01-31T02:37:51.250Z,47.96
2019-01-31T02:42:55.328Z,47.95
2019-01-31T02:48:02.302Z,47.89
2019-01-31T02:58:45.782Z,48.70
2019-01-31T04:06:24.305Z,50.39
2019-01-31T04:11:25.582Z,49.85
2019-01-31T04:16:26.904Z,49.75
2019-01-31T04:21:28.924Z,49.76
2019-01-31T04:26:30.261Z,49.59
2019-01-31T05:34:53.016Z,50.24
2019-01-31T05:39:54.306Z,50.25
2019-01-31T05:44:55.637Z,50.70
2019-01-31T05:49:57.061Z,50.31
2019-01-31T05:54:58.405Z,50.32
2019-01-31T05:59:59.829Z,51.15
2019-01-31T07:02:04.572Z,51.80
2019-01-31T07:07:06.606Z,51.71
2019-01-31T07:12:07.884Z,51.48
2019-01-31T07:17:09.156Z,51.76
2019-01-31T07:22:10.460Z,52.05
2019-01-31T07:27:12.497Z,52.00
2019-01-31T08:10:14.770Z,51.05
2019-01-31T08:15:16.062Z,50.89
2019-01-31T08:20:17.476Z,50.92
2019-01-31T08:25:29.565Z,50.58
2019-01-31T08:30:33.520Z,50.50
2019-01-31T08:35:34.924Z,50.02
2019-01-31T08:40:36.206Z,49.95
2019-01-31T08:45:37.518Z,49.92
2019-01-31T08:50:38.844Z,49.56
2019-01-31T08:55:40.133Z,49.72
2019-01-31T09:00:47.980Z,49.00
2019-01-31T09:05:49.400Z,48.94
2019-01-31T09:10:50.780Z,48.70
2019-01-31T09:15:54.251Z,48.49
2019-01-31T09:20:59.564Z,48.30
2019-01-31T11:29:49.241Z,44.23
2019-01-31T11:35:03.658Z,43.15
2019-01-31T11:40:13.022Z,41.02
2019-01-31T11:51:03.106Z,41.62
2019-01-31T11:56:29.278Z,40.53
2019-01-31T12:01:30.584Z,40.65
2019-01-31T12:06:36.853Z,40.58
2019-01-31T12:11:38.177Z,39.50
2019-01-31T12:16:39.502Z,39.92
2019-01-31T12:21:41.576Z,38.54
2019-01-31T12:26:43.668Z,39.08
2019-01-31T12:31:45.027Z,39.25
2019-01-31T12:36:49.775Z,37.32
2019-01-31T12:42:02.085Z,38.04
2019-01-31T12:47:03.395Z,37.09
2019-01-31T12:52:04.735Z,37.23
2019-01-31T12:57:06.016Z,36.95
2019-01-31T13:02:07.362Z,36.55
2019-01-31T13:07:08.692Z,37.00
2019-01-31T13:12:10.259Z,35.99
2019-01-31T13:17:11.618Z,35.50
2019-01-31T13:22:12.922Z,34.82
2019-01-31T13:27:14.244Z,33.55
2019-01-31T13:32:15.639Z,35.12
2019-01-31T13:37:17.969Z,33.39
2019-01-31T13:42:19.293Z,32.84
2019-01-31T13:47:20.662Z,35.17
2019-01-31T13:52:21.975Z,35.22
2019-01-31T13:57:23.290Z,35.72
2019-01-31T14:02:24.650Z,36.22
2019-01-31T14:07:27.629Z,35.67
2019-01-31T14:12:28.050Z,36.28
2019-01-31T14:17:29.459Z,37.26
2019-01-31T14:22:30.744Z,37.16
2019-01-31T14:27:32.063Z,37.11
2019-01-31T14:32:34.211Z,37.49
2019-01-31T14:37:35.508Z,36.67
2019-01-31T14:42:36.993Z,36.58
2019-01-31T14:47:39.063Z,36.53
2019-01-31T14:52:40.378Z,37.39
2019-01-31T14:57:41.751Z,37.59
2019-01-31T15:02:43.144Z,37.60
2019-01-31T15:07:44.492Z,37.89
2019-01-31T15:12:45.843Z,38.03
2019-01-31T15:17:47.348Z,38.35
2019-01-31T15:22:48.824Z,37.84
2019-01-31T15:27:50.979Z,38.23
2019-01-31T15:32:52.510Z,38.08
2019-01-31T15:37:53.822Z,38.46
2019-01-31T15:42:55.977Z,38.82
2019-01-31T15:47:57.318Z,39.52
2019-01-31T15:52:58.662Z,39.44
2019-01-31T15:58:00.240Z,39.20
2019-01-31T16:03:01.596Z,39.60
2019-01-31T16:08:03.487Z,39.62
2019-01-31T16:13:04.777Z,39.87
2019-01-31T16:18:06.204Z,39.86
2019-01-31T16:23:07.555Z,39.80
2019-01-31T16:28:09.712Z,39.73
2019-01-31T16:33:11.181Z,39.60
2019-01-31T16:38:12.552Z,40.05
2019-01-31T16:43:13.849Z,39.84
2019-01-31T16:48:15.225Z,39.84
2019-01-31T16:53:16.584Z,39.90
2019-01-31T16:58:18.080Z,40.05
2019-01-31T17:03:19.593Z,39.79
2019-01-31T17:08:20.981Z,40.03
2019-01-31T17:13:22.461Z,39.81
2019-01-31T17:18:23.837Z,40.17
2019-01-31T17:23:25.238Z,40.39
2019-01-31T17:28:27.698Z,40.51
2019-01-31T17:33:29.065Z,40.99
2019-01-31T17:38:42.177Z,40.97
2019-01-31T17:43:48.682Z,41.14
2019-01-31T17:48:52.242Z,41.63
2019-01-31T17:53:54.336Z,41.74
2019-01-31T17:58:55.708Z,41.65
2019-01-31T18:03:59.867Z,41.44
2019-01-31T18:09:02.003Z,41.43
2019-01-31T18:14:03.624Z,41.37
2019-01-31T18:19:05.058Z,41.71
2019-01-31T18:24:06.459Z,41.23
2019-01-31T18:29:07.913Z,41.10
2019-01-31T18:34:09.302Z,41.37
2019-01-31T18:39:11.024Z,41.43
2019-01-31T18:44:16.219Z,41.71
2019-01-31T18:49:17.615Z,41.78
2019-01-31T18:54:19.020Z,41.98
2019-01-31T18:59:20.516Z,42.16
2019-01-31T19:04:21.949Z,42.62
2019-01-31T19:09:31.028Z,42.79
2019-01-31T19:14:33.394Z,42.98
2019-01-31T19:19:39.237Z,42.73
2019-01-31T19:24:38.362Z,43.20
2019-01-31T19:29:40.160Z,43.05
2019-01-31T19:34:41.677Z,42.92
2019-01-31T19:39:43.132Z,43.11
2019-01-31T19:44:44.525Z,43.05
2019-01-31T19:49:46.470Z,43.23
2019-01-31T19:54:47.901Z,42.77
2019-01-31T19:59:49.347Z,42.83
2019-01-31T20:04:52.452Z,42.97
2019-01-31T20:09:54.089Z,43.11
2019-01-31T20:14:55.571Z,43.35
2019-01-31T20:19:57.774Z,42.98
2019-01-31T20:25:06.492Z,42.86
2019-01-31T20:30:13.250Z,43.14
2019-01-31T20:35:15.926Z,43.38
2019-01-31T20:40:22.889Z,43.86
2019-01-31T20:45:24.285Z,43.81
2019-01-31T20:50:25.636Z,43.64
2019-01-31T20:55:27.024Z,43.88
2019-01-31T21:00:33.801Z,43.79
2019-01-31T21:05:35.154Z,44.04
2019-01-31T21:10:36.531Z,43.86
2019-01-31T21:15:38.317Z,44.55
2019-01-31T21:20:52.771Z,44.46
2019-01-31T21:25:54.210Z,44.62
2019-01-31T21:30:55.627Z,44.56
2019-01-31T21:35:59.153Z,44.45
2019-01-31T21:41:04.496Z,44.39
2019-01-31T21:46:06.049Z,44.28
2019-01-31T21:51:07.505Z,44.38
2019-01-31T21:56:10.177Z,44.51
2019-01-31T22:01:22.455Z,44.68
2019-01-31T22:06:23.779Z,44.57
2019-01-31T22:11:28.739Z,45.02
2019-01-31T22:16:44.281Z,44.79
2019-01-31T22:21:47.561Z,44.80
2019-01-31T22:26:48.982Z,44.80
2019-01-31T22:31:51.401Z,44.78
2019-01-31T22:36:52.794Z,44.55
2019-01-31T22:41:54.376Z,44.08
2019-01-31T22:46:55.819Z,44.20
2019-01-31T22:51:58.018Z,44.23
2019-01-31T22:57:04.964Z,44.22
2019-01-31T23:02:06.313Z,44.46
2019-01-31T23:07:07.648Z,44.37
2019-01-31T23:12:08.992Z,44.25
2019-01-31T23:17:10.520Z,44.12
2019-01-31T23:22:11.858Z,44.41
2019-01-31T23:27:13.922Z,44.52
2019-01-31T23:32:15.288Z,44.24
2019-01-31T23:37:16.597Z,44.06
2019-01-31T23:42:17.967Z,44.11
2019-01-31T23:47:19.738Z,43.87
2019-01-31T23:52:22.474Z,43.54
2019-01-31T23:57:25.358Z,43.24
